Date,TemperatureHighF,TemperatureAvgF,TemperatureLowF,DewpointHighF,DewpointAvgF,DewpointLowF,HumidityHigh,HumidityAvg,HumidityLow,PressureMaxIn,PressureMinIn,WindSpeedMaxMPH,WindSpeedAvgMPH,GustSpeedMaxMPH,PrecipitationSumIn
2014-1-1,61.2,52.8,45.1,56.4,50.4,41.4,99,92,76,30.29,30.02,13,2,13,0.02
2014-1-2,59.0,51.2,38.3,56.4,43.0,31.3,99,75,46,30.39,26.97,28,3,28,0.13
2014-1-3,54.1,39.6,32.9,31.4,26.1,21.4,76,60,29,30.46,30.26,17,5,17,0.00
2014-1-4,68.5,48.4,30.7,50.6,39.8,24.7,86,73,52,30.26,29.96,18,6,18,0.00
2014-1-5,71.6,53.8,33.8,64.6,49.2,24.7,98,84,65,30.28,29.83,26,4,26,0.17
2014-1-6,40.3,32.1,27.0,25.1,14.6,1.8,70,50,27,30.64,30.27,26,9,26,0.00
2014-1-7,46.0,31.7,23.0,18.0,12.0,2.7,64,46,22,30.69,30.48,9,3,9,0.00
2014-1-8,50.9,38.7,25.9,38.3,26.1,16.6,85,61,43,30.48,30.29,12,4,14,0.00
2014-1-9,73.4,55.4,41.9,57.4,48.2,37.9,94,78,56,30.30,30.16,18,6,20,0.00
2014-1-10,70.2,61.1,51.4,67.7,60.2,50.5,99,97,87,30.16,29.83,9,1,9,0.18
2014-1-11,76.3,63.8,45.9,68.1,51.3,29.9,99,71,24,30.12,29.82,19,1,19,0.17
2014-1-12,73.6,56.0,40.5,49.6,41.4,31.8,98,64,23,30.19,30.00,21,6,21,0.00
2014-1-13,74.8,62.0,50.4,70.1,56.4,39.1,99,83,61,30.07,29.82,16,2,16,0.38
2014-1-14,76.1,53.7,39.0,47.4,38.9,25.8,94,63,18,30.14,30.05,11,2,11,0.00
2014-1-15,62.4,49.2,37.4,45.9,30.6,17.8,95,54,22,30.32,30.11,21,6,21,0.00
2014-1-16,37.4,36.2,35.4,31.0,30.1,29.0,82,78,73,30.19,30.17,2,0,2,0.00
2014-1-17,65.8,50.3,38.3,48.5,31.1,18.8,99,54,21,30.29,30.11,11,3,11,0.00
2014-1-18,64.4,47.3,32.5,44.2,35.0,26.2,92,66,28,30.30,30.11,16,4,16,0.00
2014-1-19,72.5,54.0,42.1,53.5,41.1,27.3,99,68,24,30.26,30.11,5,1,5,0.00
2014-1-20,75.0,54.5,37.2,60.8,49.7,35.9,99,85,59,30.14,29.94,5,1,5,0.00
2014-1-21,65.5,54.7,40.3,60.2,32.7,16.9,99,49,19,30.24,29.98,27,6,27,0.02
2014-1-22,62.8,45.7,32.0,39.5,30.7,22.0,82,58,28,30.26,30.14,12,4,12,0.00
2014-1-23,56.5,44.0,30.2,44.8,35.8,27.0,93,73,52,30.61,30.15,34,11,34,0.07
2014-1-24,30.4,27.8,25.9,28.0,22.8,20.1,92,81,72,30.63,30.34,27,3,27,0.00
2014-1-25,58.3,39.1,25.3,43.1,33.3,21.2,98,81,54,30.35,30.03,13,1,13,0.17
2014-1-26,68.5,52.7,41.0,55.6,48.8,40.7,99,88,57,30.04,29.83,20,5,20,0.00
2014-1-27,61.3,52.1,37.6,60.8,42.4,10.4,99,74,30,30.15,29.82,28,5,28,0.00
2014-1-28,37.6,29.0,25.9,22.6,17.9,8.5,83,65,32,30.41,30.14,27,14,27,0.00
2014-1-29,39.6,29.8,24.4,16.1,11.6,5.7,66,47,27,30.50,30.33,24,7,24,0.04
2014-1-30,56.1,37.2,20.5,39.3,27.1,13.0,96,68,44,30.34,30.05,14,4,14,0.00
2014-1-31,73.0,53.9,38.8,55.5,48.0,38.4,99,83,52,30.09,29.99,23,7,23,0.00
2014-2-1,77.2,62.9,49.6,67.3,60.1,48.8,99,91,67,29.99,29.94,23,7,23,0.01
2014-2-2,71.8,63.2,43.2,70.9,62.7,42.6,99,98,85,30.09,29.84,3,0,3,1.43
2014-2-3,50.4,42.8,39.0,44.8,41.0,38.8,99,93,79,30.21,30.08,17,2,17,0.00
2014-2-4,73.4,61.4,42.1,61.3,46.7,32.7,99,64,23,30.05,29.70,19,6,19,0.32
2014-2-5,74.8,57.1,39.0,70.2,50.0,36.2,99,78,61,29.95,29.68,6,2,6,0.06
2014-2-6,76.1,54.9,40.6,47.1,39.8,25.8,95,62,17,30.14,29.91,17,4,17,0.00
2014-2-7,62.4,45.3,34.7,34.2,27.2,17.9,84,55,22,30.18,30.00,20,4,20,0.00
2014-2-8,68.0,53.6,37.2,48.5,42.9,31.8,99,70,38,30.06,29.92,15,4,15,0.00
2014-2-9,65.8,51.7,34.3,58.4,35.1,18.8,99,60,21,30.14,29.91,11,2,11,1.93
2014-2-10,58.1,48.4,37.9,57.8,47.9,37.7,99,98,94,29.99,29.88,11,0,11,0.19
2014-2-11,38.8,36.0,33.4,38.2,35.1,32.9,99,96,90,30.02,29.86,27,13,27,2.68
2014-2-12,38.3,36.5,33.8,37.5,35.3,33.2,99,96,90,29.91,29.82,17,8,17,0.13
2014-2-13,37.6,36.7,33.8,35.8,34.4,31.2,94,91,89,29.90,29.88,8,2,11,0.00
2014-2-14,69.3,55.7,37.0,60.7,52.0,35.2,99,88,68,29.86,29.65,14,2,14,0.00
2014-2-15,71.4,53.2,40.8,44.6,37.5,27.2,87,59,22,30.06,29.86,13,4,13,0.00
2014-2-16,78.3,60.1,34.3,63.2,50.7,18.8,99,73,28,30.07,29.85,14,5,14,4.93
2014-2-17,79.2,67.0,57.4,69.9,63.9,57.1,99,91,67,29.91,29.81,19,7,19,0.00
2014-2-18,79.7,67.7,63.7,70.5,64.7,62.8,99,91,64,29.93,29.80,17,6,17,0.00
2014-2-19,84.2,70.4,65.5,71.0,66.6,64.4,99,89,56,29.85,29.68,24,8,24,0.00
2014-2-20,81.5,72.0,61.9,73.0,69.1,52.6,99,91,64,29.79,29.58,28,12,28,0.00
2014-2-21,79.0,58.7,45.5,52.7,39.0,23.3,89,54,16,29.94,29.79,27,6,27,0.00
2014-2-22,75.9,59.2,45.5,55.4,46.0,37.4,90,66,28,29.91,29.74,14,4,14,0.00
2014-2-23,71.6,63.8,58.6,69.8,62.1,54.9,99,94,81,29.80,29.71,10,2,10,0.05
2014-2-24,77.4,64.5,55.4,65.4,61.1,54.0,99,89,65,29.93,29.79,16,5,16,0.00
2014-2-25,64.6,60.6,55.0,61.7,58.6,54.2,99,93,82,29.87,29.70,11,4,12,1.17
2014-2-26,55.2,46.4,39.6,54.4,41.1,31.6,99,83,62,29.92,29.67,29,13,30,0.91
2014-2-27,67.5,46.0,33.1,39.6,33.7,28.6,92,66,31,29.95,29.78,13,4,13,0.00
2014-2-28,65.5,52.0,36.3,57.3,46.4,34.5,99,83,56,29.82,29.69,25,8,25,0.00
2014-3-1,79.0,67.1,56.7,69.1,63.5,56.4,99,89,69,29.90,29.76,20,8,20,0.00
2014-3-2,83.3,70.0,54.0,70.5,66.2,50.9,99,89,59,29.88,29.72,27,11,27,0.01
2014-3-3,53.6,41.0,31.6,51.5,36.4,26.2,97,84,72,30.02,29.80,27,9,27,0.25
2014-3-4,37.2,33.6,30.7,36.5,31.3,25.9,98,91,80,30.01,29.85,23,2,23,0.08
2014-3-5,61.7,46.6,35.8,52.6,43.8,35.0,99,91,69,29.87,29.75,15,5,15,0.02
2014-3-6,56.7,48.7,45.5,50.1,46.5,43.6,99,92,76,29.87,29.77,18,7,18,0.05
2014-3-7,71.8,54.6,43.7,53.3,47.9,43.2,99,81,47,29.90,29.76,11,4,12,0.00
2014-3-8,78.8,60.3,48.9,59.8,54.5,48.7,99,84,49,29.95,29.79,13,3,13,0.00
2014-3-9,77.5,63.6,54.5,62.5,57.6,53.7,99,82,55,30.03,29.92,14,3,14,0.00
2014-3-10,87.6,66.0,53.2,62.9,57.6,52.7,99,78,41,29.96,29.74,11,4,11,0.00
2014-3-11,81.0,66.0,60.3,72.5,63.2,58.3,99,91,65,29.74,29.44,15,2,15,0.14
2014-3-12,78.1,64.1,50.2,61.9,52.6,37.2,99,70,39,29.99,29.51,24,8,27,0.00
2014-3-13,79.7,55.8,41.0,45.2,38.5,28.9,90,59,19,30.11,29.99,9,3,10,0.00
2014-3-14,73.6,58.6,43.2,57.2,50.8,41.2,97,77,54,29.99,29.85,20,6,20,0.00
2014-3-15,77.4,66.5,59.9,66.1,61.4,55.7,99,84,65,29.87,29.53,13,4,13,0.02
2014-3-16,75.0,66.7,50.9,69.0,62.1,45.3,99,86,63,29.66,29.42,21,2,21,0.40
2014-3-17,54.5,48.1,39.7,45.4,40.9,36.9,90,76,61,29.68,29.60,21,7,21,0.00
2014-3-18,71.4,52.5,36.9,55.5,46.2,34.8,99,81,49,29.74,29.63,23,6,23,0.00
2014-3-19,86.5,63.2,49.8,65.8,57.9,49.6,99,85,47,29.88,29.71,12,3,12,0.00
2014-3-20,87.3,66.8,54.7,60.6,49.8,42.5,99,59,25,29.96,29.85,16,4,16,0.00
2014-3-21,82.0,64.1,49.1,63.1,54.1,47.9,99,74,41,29.87,29.75,17,5,17,0.00
2014-3-22,91.8,71.3,57.7,72.1,65.1,56.3,99,83,45,29.81,29.73,12,4,12,0.00
2014-3-23,69.6,61.9,51.6,69.1,57.9,47.2,99,88,60,29.99,29.76,28,6,28,0.15
2014-3-24,75.0,59.4,50.4,52.7,47.8,43.4,89,67,44,29.96,29.76,15,6,15,0.01
2014-3-25,77.4,58.1,44.8,46.4,38.3,27.2,89,53,18,30.06,29.87,26,7,26,0.00
2014-3-26,69.8,53.3,43.9,45.0,38.0,32.8,77,58,31,30.12,29.91,17,6,17,0.00
2014-3-27,69.6,61.8,50.0,67.2,59.0,43.8,99,90,78,29.92,29.65,27,9,27,0.13
2014-3-28,91.2,75.2,63.3,77.5,71.2,61.8,99,89,57,29.74,29.56,17,4,17,0.54
2014-3-29,82.2,65.5,55.6,65.4,55.8,45.7,99,75,36,30.01,29.69,24,4,24,0.01
2014-3-30,86.0,62.8,48.6,52.3,47.1,39.4,91,62,24,30.08,29.91,12,3,12,0.00
2014-3-31,80.6,62.7,46.2,61.5,55.3,45.4,99,79,47,29.92,29.80,24,4,24,0.00
2014-4-1,88.3,70.7,58.8,71.1,64.7,58.6,99,84,48,29.87,29.79,17,7,17,0.00
2014-4-2,86.2,74.3,67.1,72.9,69.7,66.8,99,87,61,29.83,29.72,24,10,24,0.00
2014-4-3,84.4,76.1,69.8,73.1,71.4,68.4,98,86,59,29.75,29.64,27,14,30,0.00
2014-4-4,90.1,73.3,61.3,72.2,65.8,57.7,99,80,43,29.82,29.60,18,6,18,0.52
2014-4-5,76.6,65.7,61.2,57.7,52.3,47.2,82,63,42,29.86,29.71,18,8,18,0.02
2014-4-6,76.3,65.6,54.7,74.5,64.0,53.9,99,95,79,29.74,29.40,19,5,19,0.28
2014-4-7,82.4,64.6,54.5,62.3,57.5,51.2,99,80,44,29.75,29.44,17,4,17,0.01
2014-4-8,80.1,61.4,50.2,60.8,52.1,44.0,99,76,33,29.93,29.66,41,4,41,0.02
2014-4-9,50.4,49.3,47.3,48.2,47.3,45.4,94,93,90,29.95,29.93,2,1,2,0.00
2014-4-10,82.6,64.5,50.2,59.5,53.3,49.2,99,71,35,30.00,29.91,16,7,16,0.00
2014-4-11,84.7,68.3,56.8,64.8,59.4,55.5,99,76,46,29.97,29.85,14,6,14,0.00
2014-4-12,87.8,73.6,59.7,71.4,64.7,59.4,99,77,44,29.93,29.78,20,5,20,0.00
2014-4-13,83.5,74.2,68.0,73.8,68.9,66.9,99,85,62,29.79,29.57,29,12,29,0.01
2014-4-14,89.1,70.7,50.9,76.9,67.1,50.1,98,89,60,29.82,29.51,24,8,24,0.33
2014-4-15,69.1,53.9,43.3,49.6,37.4,28.0,96,58,26,30.00,29.82,30,13,30,0.00
2014-4-16,78.3,56.0,38.7,49.4,42.5,35.7,91,64,33,30.02,29.86,15,4,15,0.00
2014-4-17,68.7,59.6,48.9,59.0,54.2,47.6,98,83,66,29.99,29.88,13,4,13,0.00
2014-4-18,86.4,69.1,58.8,66.0,61.4,57.7,99,79,47,29.94,29.85,17,3,17,0.15
2014-4-19,93.7,71.3,55.8,62.2,58.3,53.6,99,69,32,30.00,29.89,0,0,0,0.00
2014-4-20,98.6,73.5,55.8,65.7,58.7,55.1,99,64,30,29.99,29.85,0,0,0,0.00
2014-4-21,76.6,76.6,76.6,58.8,58.8,58.8,54,54,54,29.92,29.77,0,0,0,0.00
2014-4-22,80.1,75.1,64.9,72.9,59.8,58.8,96,60,54,29.97,29.69,13,0,13,0.00
2014-4-23,89.4,73.6,59.2,67.7,62.7,57.0,99,73,41,30.03,29.89,0,0,0,0.00
2014-4-24,86.2,73.6,63.1,72.8,67.5,62.3,99,83,54,29.98,29.88,16,1,16,0.01
2014-4-25,95.4,77.6,68.4,70.9,65.6,58.3,99,71,34,30.04,29.92,11,2,11,0.00
2014-4-26,88.5,77.2,68.2,74.5,70.9,67.9,99,83,54,29.99,29.88,14,4,14,0.00
2014-4-27,87.6,78.7,74.1,76.7,73.7,70.1,96,85,58,29.89,29.68,24,10,24,0.12
2014-4-28,86.7,78.4,73.4,77.0,74.6,72.2,99,89,71,29.79,29.62,21,9,21,0.00
2014-4-29,93.6,80.0,68.5,76.5,70.3,52.8,99,75,47,29.87,29.66,14,3,14,0.00
2014-4-30,80.6,67.6,59.0,54.7,48.7,42.5,73,52,33,30.13,29.87,20,5,20,0.00
2014-5-1,79.9,64.2,49.6,57.5,47.3,37.7,93,60,24,30.17,30.02,16,3,16,0.01
2014-5-2,85.3,67.6,54.0,59.2,50.1,39.0,96,60,23,30.10,29.98,11,2,11,0.00
2014-5-3,59.9,58.1,57.0,53.8,51.6,50.1,89,79,71,30.05,30.04,2,0,2,0.00
2014-5-4,92.1,73.8,59.7,68.4,59.9,54.3,99,67,30,30.18,30.08,10,2,10,0.00
2014-5-5,87.8,71.8,57.9,67.8,61.0,56.8,98,72,42,30.13,29.99,17,4,17,0.00
2014-5-6,88.7,73.0,60.8,67.0,62.7,59.8,99,73,43,30.02,29.93,16,5,17,0.00
2014-5-7,87.8,76.0,64.2,73.8,69.3,62.8,99,82,51,30.05,29.94,24,7,24,0.00
2014-5-8,86.4,78.3,70.9,74.8,71.1,66.8,99,80,54,30.05,29.97,23,9,23,0.00
2014-5-9,83.5,77.4,70.7,78.8,75.3,70.1,99,93,79,30.04,29.93,17,5,17,0.61
2014-5-10,88.7,76.0,67.5,76.4,71.3,67.2,99,87,60,30.03,29.93,17,3,17,0.04
2014-5-11,90.9,79.3,71.4,79.0,75.0,70.7,99,88,62,30.01,29.91,26,7,26,0.11
2014-5-12,87.6,80.2,75.6,76.7,74.9,72.8,95,84,64,30.05,29.92,27,10,27,0.00
2014-5-13,89.6,77.5,70.9,76.1,72.0,68.6,99,84,54,30.08,29.99,14,3,14,0.17
2014-5-14,71.6,66.2,57.4,70.9,62.7,52.3,98,89,73,30.21,30.01,0,0,0,0.08
2014-5-15,80.4,63.4,50.5,53.3,50.0,44.3,99,66,33,30.29,30.17,16,2,16,0.00
2014-5-16,86.4,69.8,54.5,63.8,57.8,52.3,98,69,39,30.22,30.09,20,3,20,0.00
2014-5-17,86.0,72.6,59.7,68.3,63.4,58.9,99,75,48,30.17,30.08,22,5,22,0.00
2014-5-18,90.3,75.4,63.0,70.3,63.9,57.7,99,71,35,30.19,30.10,12,3,12,0.00
2014-5-19,90.5,75.4,63.3,72.4,63.5,56.3,99,71,34,30.18,30.11,14,4,15,0.00
2014-5-20,91.0,76.5,65.1,73.9,67.9,63.9,99,78,45,30.19,30.11,15,5,15,0.00
2014-5-21,92.8,77.8,66.6,75.9,67.3,62.2,99,74,41,30.20,30.12,14,3,14,0.00
2014-5-22,92.8,78.3,64.4,74.8,65.8,55.0,99,70,32,30.21,30.09,12,2,12,0.00
2014-5-23,93.6,78.5,66.7,75.3,68.1,64.0,99,74,44,30.19,30.06,10,2,10,0.00
2014-5-24,92.8,77.8,67.5,73.8,68.6,63.2,97,76,43,30.14,30.03,11,2,11,0.00
2014-5-25,94.8,79.5,67.1,74.5,69.1,65.0,99,74,44,30.12,30.03,12,3,12,0.00
2014-5-26,90.3,79.0,68.2,75.0,70.5,67.8,99,77,51,30.14,30.06,14,4,14,0.00
2014-5-27,83.8,76.5,68.9,76.4,73.8,68.6,99,92,70,30.08,29.94,19,4,19,0.85
2014-5-28,85.8,74.4,68.2,79.0,71.7,67.9,99,92,67,29.95,29.83,18,4,18,6.73
2014-5-29,87.6,76.3,71.2,78.2,73.8,70.7,99,92,68,29.88,29.80,11,2,11,0.27
2014-5-30,92.3,80.0,70.7,77.4,72.9,68.2,99,81,52,29.93,29.84,12,3,12,0.01
2014-5-31,93.9,79.6,73.2,78.2,74.6,72.4,99,86,54,29.97,29.89,12,3,15,0.11
2014-6-1,91.8,77.5,72.9,80.5,74.7,72.0,99,92,58,30.03,29.95,16,4,16,0.47
2014-6-2,91.8,78.6,72.3,77.6,74.3,71.5,99,88,56,30.08,30.00,18,4,18,0.01
2014-6-3,91.9,80.2,72.1,77.0,73.8,71.3,99,83,55,30.07,29.97,15,3,15,0.01
2014-6-4,90.7,79.1,72.1,80.3,75.5,71.3,99,89,66,30.00,29.90,10,2,10,0.06
2014-6-5,92.5,82.0,73.0,79.2,76.1,72.2,99,84,58,29.97,29.88,9,2,9,0.00
2014-6-6,96.1,83.8,74.3,81.6,77.1,74.1,99,82,55,30.02,29.93,8,2,8,0.00
2014-6-7,95.5,84.4,75.6,81.2,77.1,73.6,99,81,55,30.04,29.93,13,2,13,0.00
2014-6-8,95.0,83.9,74.3,80.8,76.7,73.9,99,81,54,30.03,29.87,13,3,13,0.00
2014-6-9,92.5,82.1,75.2,78.9,75.7,71.6,98,82,57,29.96,29.83,17,5,17,0.00
2014-6-10,89.4,78.5,68.0,80.9,74.2,67.7,99,87,65,29.93,29.80,14,3,14,2.76
2014-6-11,92.7,78.9,68.5,74.4,70.9,67.9,99,79,49,29.94,29.85,6,1,6,0.00
2014-6-12,95.5,82.6,72.3,80.3,76.8,71.5,99,84,54,30.00,29.86,11,2,11,0.00
2014-6-13,90.3,78.9,72.1,78.4,75.5,71.3,99,90,64,30.03,29.94,8,1,8,0.31
2014-6-14,95.4,81.4,69.8,78.0,73.0,69.2,99,78,48,30.05,29.96,11,2,11,0.00
2014-6-15,94.6,81.5,72.1,80.6,74.8,70.7,99,82,54,30.08,29.96,14,4,14,0.01
2014-6-16,95.0,82.0,74.1,80.5,76.2,71.4,99,84,54,30.17,30.05,17,4,17,0.01
2014-6-17,95.2,83.8,74.7,80.5,76.4,73.9,99,80,53,30.15,30.06,14,4,14,0.00
2014-6-18,96.6,84.2,74.5,80.1,75.1,70.8,99,77,47,30.13,30.05,11,4,13,0.00
2014-6-19,95.9,85.5,73.6,78.9,74.4,69.0,99,72,47,30.15,30.08,10,2,10,0.00
2014-6-20,96.1,82.7,73.4,79.6,75.3,73.2,99,80,51,30.15,30.05,13,2,13,0.00
2014-6-21,95.4,83.7,74.1,80.1,75.5,72.2,99,78,50,30.11,29.95,8,1,8,0.00
2014-6-22,95.7,83.8,75.9,81.1,77.5,75.1,99,83,54,30.04,29.93,8,1,8,0.00
2014-6-23,93.6,83.5,78.3,81.3,76.7,71.3,99,82,51,30.05,29.94,12,2,12,0.00
2014-6-24,93.0,79.3,73.6,82.0,76.2,70.2,99,91,54,30.14,30.03,16,2,16,0.25
2014-6-25,91.0,77.4,72.7,81.2,75.3,71.8,99,94,66,30.14,30.06,17,2,17,0.93
2014-6-26,92.3,77.4,72.0,82.0,74.8,71.1,99,92,68,30.11,29.99,14,4,14,0.78
2014-6-27,81.3,74.9,71.6,78.6,73.7,70.7,99,96,85,30.11,30.00,27,4,27,0.53
2014-6-28,92.1,81.6,73.4,83.3,78.0,73.2,99,90,68,30.12,30.03,17,7,17,0.05
2014-6-29,94.6,84.9,77.7,82.5,79.5,77.5,99,85,62,30.18,30.09,14,5,14,0.00
2014-6-30,95.4,85.0,77.0,82.2,78.5,75.6,99,83,53,30.13,30.02,12,3,12,0.00
2014-7-1,97.0,85.4,75.6,81.9,78.2,75.3,99,81,52,30.07,29.98,11,2,11,0.00
2014-7-2,97.3,84.4,75.0,81.2,76.6,70.5,99,79,52,30.11,30.01,13,2,13,0.00
2014-7-3,96.3,83.0,71.6,77.8,73.5,70.3,99,75,50,30.16,30.05,12,3,12,0.00
2014-7-4,94.1,82.4,74.8,75.0,70.6,65.7,95,70,45,30.23,30.13,12,5,12,0.00
2014-7-5,94.5,80.8,69.3,71.3,68.8,64.4,95,70,44,30.23,30.11,10,3,10,0.00
2014-7-6,96.8,82.0,68.5,75.2,70.7,67.1,96,71,44,30.14,30.03,7,1,7,0.00
2014-7-7,99.1,83.9,71.8,78.4,74.1,70.2,99,75,43,30.11,30.03,11,2,11,0.00
2014-7-8,96.3,80.2,72.7,80.4,75.5,70.0,99,87,54,30.13,30.02,30,2,30,1.09
2014-7-9,96.3,82.2,72.9,83.1,76.3,69.7,99,84,48,30.14,30.04,13,2,13,0.00
2014-7-10,94.8,83.0,74.5,81.8,77.2,74.2,99,84,60,30.15,30.05,11,2,11,0.00
2014-7-11,98.8,85.4,74.8,81.5,76.1,71.0,99,77,44,30.20,30.10,11,2,11,0.00
2014-7-12,97.9,81.3,74.7,81.1,76.7,69.3,99,87,49,30.19,30.10,24,2,24,0.19
2014-7-13,95.7,82.7,73.6,80.1,76.6,73.3,99,83,56,30.14,30.03,9,2,9,0.00
2014-7-14,97.0,84.3,74.1,80.8,77.0,73.9,99,81,52,30.09,29.97,10,2,10,0.00
2014-7-15,91.2,80.7,75.6,79.9,77.1,73.7,99,89,63,30.05,29.95,14,1,14,0.07
2014-7-16,92.3,80.7,73.2,75.7,69.9,64.7,99,73,45,30.06,29.98,11,4,11,0.01
2014-7-17,88.0,77.4,69.6,79.5,71.5,65.1,96,82,57,30.05,29.95,10,3,10,0.20
2014-7-18,80.6,76.5,73.6,79.4,75.9,73.3,99,98,93,30.00,29.92,16,3,16,1.80
2014-7-19,82.9,77.0,73.0,80.9,75.8,72.2,99,96,87,30.06,29.97,8,3,8,0.74
2014-7-20,93.9,81.3,74.5,80.5,77.0,74.1,99,88,59,30.07,29.99,8,2,8,0.00
2014-7-21,96.3,84.3,73.9,81.7,77.3,73.7,99,81,55,30.09,30.00,10,2,10,0.00
2014-7-22,96.3,84.7,75.4,77.7,74.7,71.3,96,74,48,30.08,30.01,11,3,11,0.00
2014-7-23,96.3,83.9,74.5,77.8,74.6,70.3,97,76,48,30.10,29.97,13,3,13,0.00
2014-7-24,96.1,81.8,73.9,81.6,76.9,73.7,99,86,56,30.06,29.97,11,2,13,0.07
2014-7-25,98.4,84.6,74.8,82.3,78.1,74.6,99,83,53,30.09,29.99,11,2,11,0.00
2014-7-26,97.7,85.2,76.6,83.5,79.2,76.4,99,84,55,30.12,30.03,12,2,12,0.00
2014-7-27,99.1,86.4,77.2,82.9,79.3,76.9,99,81,52,30.14,30.05,8,2,8,0.00
2014-7-28,96.8,85.6,77.0,82.9,79.2,74.7,99,83,60,30.15,30.01,22,2,22,0.28
2014-7-29,95.0,82.6,73.9,78.4,73.4,63.9,99,76,44,30.14,30.03,13,3,13,0.00
2014-7-30,94.6,81.6,71.6,73.3,68.7,60.7,96,68,39,30.13,30.03,11,3,11,0.00
2014-7-31,95.5,82.4,72.0,76.6,71.8,67.9,90,72,47,30.08,29.98,9,3,9,0.00
2014-8-1,87.8,79.0,73.4,82.9,76.9,73.2,99,93,76,30.04,29.94,15,3,15,1.18
2014-8-2,92.5,82.2,76.5,82.4,77.8,76.0,99,87,60,30.02,29.94,8,1,8,0.00
2014-8-3,91.6,81.6,77.7,81.1,77.8,75.2,98,89,63,30.04,29.97,8,2,8,0.02
2014-8-4,95.5,82.9,72.9,79.5,76.2,71.8,99,82,53,30.06,29.98,14,2,14,0.11
2014-8-5,99.0,85.0,76.3,82.2,77.8,75.1,99,81,48,30.12,30.03,14,2,14,0.00
2014-8-6,101.3,86.5,77.0,82.6,78.4,73.1,99,79,46,30.10,30.00,8,2,8,0.00
2014-8-7,97.9,85.0,75.9,82.2,78.4,74.4,99,82,53,30.07,29.94,8,1,10,0.00
2014-8-8,97.9,85.3,77.2,83.3,79.1,76.2,99,83,55,30.06,29.95,13,2,13,0.00
2014-8-9,98.1,82.7,77.5,83.3,78.8,75.4,99,89,56,30.09,30.00,17,2,17,0.18
2014-8-10,93.6,80.9,73.4,83.9,78.3,71.2,99,92,70,30.11,30.00,17,2,17,0.53
2014-8-11,96.6,81.4,73.4,83.6,77.6,71.5,99,89,60,30.09,29.99,30,2,30,0.09
2014-8-12,97.5,82.6,72.9,81.3,76.2,72.0,99,83,51,30.05,29.93,9,1,9,0.01
2014-8-13,93.6,82.2,73.8,76.5,72.0,67.7,97,74,46,30.09,30.00,11,4,11,0.00
2014-8-14,74.1,73.9,73.6,68.8,68.7,68.5,84,84,83,30.06,30.06,4,3,4,0.00
2014-8-15,97.0,86.5,68.9,77.1,74.2,68.0,97,68,48,30.08,29.65,7,2,7,0.00
2014-8-16,98.6,84.5,75.9,82.6,78.1,75.4,99,82,53,30.04,29.65,13,2,13,0.05
2014-8-17,97.3,80.5,73.2,83.1,77.2,71.7,99,91,52,30.10,29.94,17,2,17,0.38
2014-8-18,98.1,84.1,76.1,82.8,78.4,73.1,99,85,48,30.08,29.88,14,2,14,0.00
2014-8-19,99.0,80.2,74.1,82.7,77.5,73.7,99,92,52,30.11,29.90,11,2,11,0.69
2014-8-20,97.7,80.6,72.3,83.1,76.6,71.5,99,89,52,30.17,29.98,23,2,23,0.37
2014-8-21,97.9,79.7,74.8,84.2,77.6,73.9,99,94,63,30.20,30.09,30,2,30,1.15
2014-8-22,102.2,84.4,74.5,85.4,78.3,74.2,99,84,46,30.22,29.98,6,1,6,0.01
2014-8-23,102.2,85.6,76.1,83.1,78.6,74.1,99,82,46,30.12,29.82,8,1,8,0.00
2014-8-24,99.0,86.0,76.6,82.5,79.4,76.4,99,83,53,30.02,29.72,9,1,9,0.00
2014-8-25,100.8,83.5,74.7,83.7,78.2,74.4,99,87,51,30.00,29.77,18,2,18,0.67
2014-8-26,95.9,82.5,74.5,79.6,75.3,71.2,99,81,47,30.14,29.88,13,4,13,0.00
2014-8-27,98.6,83.7,75.0,79.6,75.8,73.0,99,79,46,30.07,29.88,12,3,12,0.00
2014-8-28,95.4,84.0,76.6,81.1,76.7,72.9,98,80,51,30.15,29.90,11,3,11,0.00
2014-8-29,88.3,81.6,76.3,80.8,77.1,75.2,99,87,70,30.02,29.88,14,4,14,0.05
2014-8-30,77.7,75.7,73.9,77.5,75.5,73.7,99,99,97,30.11,29.87,22,4,22,1.74
2014-8-31,96.1,82.0,73.8,82.3,76.5,23.3,99,85,14,30.19,29.98,14,4,14,0.00
2014-9-1,95.2,83.8,77.2,82.5,78.9,76.9,99,86,58,30.09,29.88,16,4,16,0.01
2014-9-2,92.5,81.8,75.7,85.3,79.2,74.4,99,92,71,30.12,29.94,12,3,12,0.99
2014-9-3,97.7,83.0,75.2,82.2,77.2,73.6,99,84,53,30.13,29.94,13,3,13,0.00
2014-9-4,100.8,83.6,73.4,78.8,76.0,73.2,99,80,46,30.15,29.94,8,2,11,0.01
2014-9-5,96.8,82.7,75.2,80.9,77.3,74.0,99,85,53,30.27,29.99,12,2,12,0.00
2014-9-6,93.0,79.4,74.3,81.9,77.0,73.9,99,93,66,30.22,29.98,14,1,14,0.06
2014-9-7,97.0,82.2,72.9,81.8,76.2,72.0,99,84,54,30.19,29.91,13,2,13,0.00
2014-9-8,97.9,83.3,75.0,80.5,77.1,73.7,99,83,49,30.07,29.91,11,2,11,0.00
2014-9-9,97.2,83.0,75.2,82.3,77.8,75.0,99,86,55,30.08,29.86,14,1,14,0.00
2014-9-10,96.4,82.7,74.7,81.7,77.7,74.4,99,87,53,30.01,29.83,13,2,13,0.04
2014-9-11,98.8,83.0,74.1,81.0,76.8,73.0,99,84,45,30.06,29.86,12,2,12,0.00
2014-9-12,97.7,81.0,75.0,79.8,76.7,74.7,99,88,51,30.08,29.92,17,3,17,0.57
2014-9-13,79.0,73.0,68.7,75.7,70.2,66.5,99,91,76,30.21,30.00,17,8,17,0.01
2014-9-14,85.8,74.3,69.4,75.2,70.9,67.4,96,89,68,30.23,29.96,16,6,16,0.00
2014-9-15,100.0,81.3,71.1,79.9,74.7,70.5,99,83,45,30.22,29.98,11,3,11,0.00
2014-9-16,96.3,79.5,73.9,81.2,76.2,73.7,99,91,57,30.14,30.00,16,2,16,0.11
2014-9-17,96.4,80.6,72.1,79.1,75.4,71.3,99,86,51,30.08,29.85,10,2,11,0.01
2014-9-18,86.4,78.7,74.1,78.6,76.3,73.0,99,93,74,30.08,29.87,8,1,8,0.02
2014-9-19,92.3,80.3,72.9,76.2,73.3,70.4,99,81,55,30.06,29.88,14,4,14,0.00
2014-9-20,94.6,80.7,71.6,75.8,72.1,69.4,97,78,47,30.06,29.92,14,4,14,0.00
2014-9-21,95.4,80.5,70.3,77.1,71.6,67.6,99,78,44,30.16,29.92,14,3,14,0.00
2014-9-22,91.8,78.5,70.2,77.4,69.0,58.1,99,75,49,30.18,30.00,20,5,20,0.00
2014-9-23,89.6,73.6,61.2,62.4,59.6,55.2,92,65,33,30.29,30.03,14,5,14,0.00
2014-9-24,91.2,76.2,64.0,71.5,65.7,60.6,92,72,42,30.34,30.07,14,4,14,0.00
2014-9-25,90.0,77.2,70.0,70.5,67.7,63.5,96,75,46,30.28,30.07,16,4,16,0.00
2014-9-26,91.4,77.8,69.3,71.6,67.7,64.2,93,73,43,30.31,30.01,13,3,14,0.00
2014-9-27,87.3,76.7,69.4,71.3,68.8,65.7,95,78,50,30.19,29.94,17,4,17,0.00
2014-9-28,84.6,76.5,73.4,77.1,74.1,70.4,99,93,77,30.15,29.99,14,5,14,0.57
2014-9-29,90.5,78.8,72.5,78.9,74.9,71.6,99,88,64,30.08,29.88,11,3,11,0.02
2014-9-30,95.9,81.0,70.5,78.2,73.6,70.0,99,81,49,30.14,29.81,11,2,11,0.00
2014-10-1,92.1,80.3,75.0,80.4,77.1,74.1,99,91,65,30.16,29.84,15,4,15,0.19
2014-10-2,94.6,83.3,76.5,82.7,77.9,22.4,99,86,12,30.02,29.78,14,5,18,0.00
2014-10-3,85.8,74.6,65.8,79.9,69.6,62.5,99,86,57,30.21,29.86,13,2,13,0.65
2014-10-4,78.3,65.0,56.8,62.5,52.0,40.8,95,67,27,30.38,30.12,20,5,20,0.00
2014-10-5,84.4,67.7,52.9,64.8,57.5,47.8,94,73,35,30.38,30.00,14,4,14,0.00
2014-10-6,83.8,70.3,64.8,73.4,66.8,63.2,99,89,67,30.19,29.94,19,3,19,0.13
2014-10-7,92.7,76.4,64.8,78.2,70.5,64.5,99,84,51,30.19,29.89,11,2,11,0.00
2014-10-8,93.2,78.2,68.5,79.6,71.2,66.8,99,82,47,30.24,30.00,8,2,8,0.00
2014-10-9,94.1,80.2,73.2,79.3,74.8,72.0,99,85,54,30.14,29.89,15,4,15,0.00
2014-10-10,92.7,81.2,73.4,80.3,73.5,68.4,99,80,49,30.13,29.91,14,4,14,0.00
2014-10-11,93.6,77.7,70.3,79.8,74.0,69.8,99,90,55,30.10,29.96,13,1,13,0.24
2014-10-12,92.8,78.7,70.3,81.6,73.5,69.8,99,86,54,30.10,29.85,14,3,14,0.01
2014-10-13,88.9,73.8,62.1,80.8,71.1,60.7,99,92,64,29.98,29.72,30,6,30,1.51
2014-10-14,79.9,65.0,56.3,60.7,55.6,47.6,99,75,38,30.25,29.99,11,1,11,0.01
2014-10-15,82.8,64.9,52.5,58.5,54.5,49.2,97,73,35,30.44,30.09,14,1,14,0.00
2014-10-16,89.1,69.3,54.7,65.9,60.3,53.9,99,78,37,30.33,30.00,8,1,8,0.00
2014-10-17,88.7,72.3,60.3,71.1,65.2,59.7,99,81,46,30.26,30.01,13,2,13,0.00
2014-10-18,89.2,73.5,62.6,74.3,66.3,61.1,99,80,45,30.28,29.96,12,2,12,0.00
2014-10-19,82.8,68.7,59.2,61.3,58.3,56.4,92,71,44,30.34,30.00,13,5,15,0.00
2014-10-20,84.9,67.5,57.2,63.9,57.9,54.9,94,74,44,30.36,30.10,10,3,10,0.00
2014-10-21,86.4,68.9,56.5,62.9,58.8,55.4,97,74,40,30.40,30.08,13,3,13,0.00
2014-10-22,85.3,69.7,59.9,62.6,58.8,53.9,98,71,44,30.39,30.11,15,4,15,0.00
2014-10-23,79.9,64.2,54.0,56.4,54.6,52.0,94,73,42,30.44,30.25,11,4,11,0.00
2014-10-24,80.1,62.9,51.6,58.4,53.1,47.7,99,74,35,30.56,30.26,13,4,13,0.00
2014-10-25,89.2,65.7,50.9,60.2,55.1,50.4,99,74,32,30.60,30.28,8,1,8,0.00
2014-10-26,90.5,69.0,55.4,65.6,57.1,49.6,99,72,26,30.47,30.06,8,1,8,0.00
2014-10-27,87.8,70.2,58.3,70.6,64.5,56.0,99,84,51,30.35,30.09,15,3,15,0.00
2014-10-28,90.0,74.8,66.2,74.8,68.7,65.9,99,83,50,30.35,30.10,11,2,11,0.00
2014-10-29,86.0,70.3,61.7,74.9,66.4,55.8,99,88,65,30.35,30.16,17,3,17,0.00
2014-10-30,81.9,63.7,52.9,55.6,49.4,39.9,91,64,23,30.50,30.25,14,4,14,0.00
2014-10-31,79.5,62.6,50.7,55.1,50.6,46.4,97,69,33,30.56,30.31,18,4,18,0.00
2014-11-1,66.6,52.6,42.6,49.2,34.4,23.0,81,53,21,30.94,30.52,14,6,17,0.00
2014-11-2,71.8,53.4,40.5,44.7,39.0,33.3,83,61,27,31.07,30.74,11,3,11,0.00
2014-11-3,78.4,61.9,47.1,57.8,50.4,43.8,92,69,39,30.95,30.60,14,4,14,0.00
2014-11-4,85.5,69.9,60.3,67.5,61.9,56.6,92,77,51,30.65,30.30,17,5,17,0.00
2014-11-5,79.0,70.5,65.3,70.9,67.5,64.0,99,91,74,30.42,30.26,13,3,13,0.79
2014-11-6,70.0,65.8,58.1,69.2,63.5,56.7,99,93,74,30.50,30.35,11,3,14,0.46
2014-11-7,67.3,56.2,49.1,56.7,45.5,37.3,95,70,37,30.73,30.46,18,5,18,0.00
2014-11-8,75.4,58.2,47.1,54.5,48.0,39.5,94,72,28,30.69,30.38,11,2,11,0.00
2014-11-9,76.3,58.6,49.6,53.7,50.9,48.6,99,79,42,30.68,30.30,14,2,14,0.00
2014-11-10,81.7,62.9,47.7,64.0,57.5,47.1,99,85,51,30.56,29.81,17,5,17,0.00
2014-11-11,82.0,69.1,55.2,69.2,64.2,53.5,98,86,62,30.37,30.12,15,5,15,0.00
2014-11-12,54.9,48.9,43.5,53.9,45.5,35.5,99,88,73,30.86,30.38,21,10,21,0.14
2014-11-13,48.2,42.6,36.7,36.3,33.0,24.7,91,69,55,31.05,30.85,21,10,25,0.07
2014-11-14,54.5,40.8,33.1,30.1,24.3,19.9,70,53,26,31.17,30.95,17,6,17,0.00
2014-11-15,60.6,47.0,35.2,44.8,31.8,24.6,76,57,33,31.07,30.80,13,4,13,0.00
2014-11-16,71.8,62.1,48.4,69.4,59.8,44.8,99,92,76,30.80,30.23,27,7,29,2.41
2014-11-17,53.1,44.2,38.3,48.1,36.4,29.1,99,76,47,31.07,30.42,24,8,24,0.17
2014-11-18,55.6,40.2,32.9,31.2,26.0,19.5,86,59,31,31.31,30.95,13,5,15,0.00
2014-11-19,66.4,46.4,30.4,45.3,35.4,22.3,94,71,21,31.33,30.98,15,3,15,0.00
2014-11-20,77.2,58.0,45.3,56.5,50.4,44.5,99,78,44,31.02,30.66,17,4,17,0.00
2014-11-21,81.0,64.3,55.0,56.3,50.7,40.0,87,65,24,30.87,30.48,16,5,16,0.00
2014-11-22,74.1,63.8,54.5,64.7,59.2,52.1,99,86,69,30.70,30.19,19,6,19,0.05
2014-11-23,77.7,68.2,62.2,69.2,64.8,58.8,99,90,53,30.19,29.82,25,8,25,0.91
2014-11-24,72.3,60.7,53.1,68.1,50.8,40.1,99,72,42,30.55,29.96,17,4,17,0.00
2014-11-25,55.8,49.3,40.3,45.0,39.7,36.4,95,71,49,30.93,30.55,12,3,12,0.00
2014-11-26,76.5,54.3,38.5,52.8,44.8,37.7,98,75,34,30.99,30.68,21,3,21,0.00
2014-11-27,66.6,52.1,44.1,49.0,38.7,30.7,96,64,28,31.15,30.87,17,5,17,0.00
2014-11-28,73.4,52.4,38.3,51.5,43.0,34.8,96,73,31,31.12,30.77,12,4,12,0.00
2014-11-29,78.8,63.9,51.3,64.6,58.7,50.3,99,85,52,30.82,30.46,20,7,20,0.00
2014-11-30,83.1,67.2,57.9,66.8,62.0,57.7,99,85,52,30.67,30.41,17,5,17,0.00
2014-12-1,84.0,68.4,59.2,69.2,63.1,58.9,99,85,49,30.67,30.51,12,3,12,0.00
2014-12-2,65.5,55.7,49.5,64.9,52.5,48.4,98,89,71,30.74,30.52,14,6,14,0.00
2014-12-3,77.0,58.7,47.5,62.3,54.1,47.2,99,86,56,30.86,30.60,10,3,10,0.00
2014-12-4,81.0,65.5,54.9,68.9,62.3,54.0,99,90,66,30.71,30.45,9,3,9,0.00
2014-12-5,84.0,71.8,65.5,73.0,68.9,65.2,99,91,64,30.54,30.25,19,5,19,0.00
2014-12-6,81.7,69.5,57.4,74.8,65.7,15.6,99,88,62,30.67,30.38,21,6,21,0.01
2014-12-7,68.4,54.0,47.8,53.1,47.5,44.2,95,80,47,30.89,30.60,19,7,19,0.00
2014-12-8,70.5,52.2,42.6,49.7,45.7,42.0,99,81,44,30.94,30.69,14,3,14,0.00
2014-12-9,79.0,54.5,42.1,53.4,46.1,41.6,99,77,35,31.02,30.60,11,2,11,0.00
2014-12-10,69.1,52.1,42.4,47.7,43.8,40.5,96,75,44,30.99,30.74,11,4,11,0.00
2014-12-11,71.6,54.0,44.1,48.3,44.1,39.6,87,71,38,30.94,30.71,9,2,9,0.00
2014-12-12,79.5,60.3,47.7,53.9,50.4,45.1,93,72,37,31.01,30.63,7,2,8,0.00
2014-12-13,81.5,61.0,51.6,56.6,51.9,48.1,94,75,40,30.88,30.48,9,2,11,0.00
2014-12-14,78.8,60.7,50.4,57.2,52.8,49.4,99,78,41,30.75,30.40,17,5,17,0.00
2014-12-15,79.7,68.6,60.1,70.6,65.2,55.6,99,89,68,30.48,30.22,22,8,22,0.04
2014-12-16,72.5,56.8,47.7,56.4,41.7,38.6,78,59,32,30.79,30.38,11,3,11,0.00
2014-12-17,64.9,51.6,41.9,45.9,42.9,39.0,93,74,47,30.89,30.69,11,3,11,0.00
2014-12-18,68.4,56.8,50.2,59.8,52.5,44.6,99,86,73,30.77,30.60,12,4,12,0.02
2014-12-19,58.1,54.6,49.1,57.8,54.1,-2.2,99,98,10,30.74,30.54,16,7,16,2.22
2014-12-20,53.8,49.8,45.0,51.2,48.8,44.2,99,96,87,30.90,30.72,23,6,23,0.00
2014-12-21,54.0,50.0,44.1,53.1,49.5,43.5,99,98,96,30.86,30.57,5,2,5,0.00
2014-12-22,79.2,63.1,50.9,69.7,61.0,50.6,99,94,64,30.57,30.10,18,4,18,0.00
2014-12-23,69.6,61.3,49.8,69.4,60.8,48.3,99,98,93,30.31,29.91,23,4,23,1.35
2014-12-24,54.5,47.7,39.6,49.1,42.2,38.3,99,83,58,30.85,30.29,12,3,12,0.00
2014-12-25,65.8,48.3,37.2,47.2,41.1,36.5,99,79,39,31.02,30.77,14,4,14,0.01
2014-12-26,61.7,55.8,47.8,60.4,53.9,44.4,99,93,85,30.83,30.68,14,6,14,0.02
2014-12-27,77.2,67.5,60.8,74.8,66.8,60.2,99,98,90,30.69,30.36,21,6,21,0.57
2014-12-28,62.8,53.2,48.9,61.7,52.6,48.7,99,98,92,30.75,30.38,15,6,15,0.28
2014-12-29,55.0,50.9,47.8,53.2,50.3,47.6,99,98,91,30.86,30.71,12,5,12,0.02
2014-12-30,50.0,44.0,37.2,49.7,43.2,36.5,99,97,90,31.22,30.83,20,7,20,0.01
2014-12-31,63.3,44.8,35.8,40.8,37.3,33.0,99,77,39,31.27,30.94,18,8,18,0.00
2015-1-1,51.8,46.9,43.0,51.4,42.9,36.5,99,86,76,31.12,30.78,17,6,17,0.00
2015-1-2,66.9,59.4,51.6,66.7,58.9,51.3,99,98,94,30.86,30.53,8,4,8,0.13